Time;durP1;ratioP1;P1;durP2;ratioP2;P2;SDS_P1;SDS_P2;PMS_P1;PMS_P2;Temp;Humidity;BMP_temperature;BMP_pressure;BME280_temperature;BME280_humidity;BME280_pressure;Samples;Min_cycle;Max_cycle;Signal;HPM_P1;HPM_P2
2023/04/19 00:00:03;;;;;;;0.20;0.20;;;;;;;20.01;41.64;102207.38;5113395;28;20380;-42
2023/04/19 00:02:28;;;;;;;0.20;0.20;;;;;;;20.00;41.86;102200.19;5112182;28;20078;-43
2023/04/19 00:04:55;;;;;;;0.20;0.20;;;;;;;20.01;41.84;102215.66;5111460;28;20051;-43
2023/04/19 00:07:21;;;;;;;0.20;0.20;;;;;;;20.00;41.54;102208.47;5112643;28;20054;-44
2023/04/19 00:09:46;;;;;;;0.20;0.20;;;;;;;20.01;41.94;102199.91;5112471;28;20051;-43
2023/04/19 00:12:12;;;;;;;0.20;0.20;;;;;;;20.01;41.82;102204.59;5112651;28;20346;-43
2023/04/19 00:14:38;;;;;;;0.20;0.20;;;;;;;20.00;41.68;102206.53;5112252;28;20039;-43
2023/04/19 00:17:03;;;;;;;0.20;0.20;;;;;;;20.00;41.85;102198.25;5112147;28;20062;-44
2023/04/19 00:19:29;;;;;;;0.20;0.20;;;;;;;20.00;41.82;102201.00;5112464;28;20392;-44
2023/04/19 00:21:55;;;;;;;0.20;0.20;;;;;;;20.01;41.98;102204.59;5112321;28;20050;-44
2023/04/19 00:24:20;;;;;;;0.20;0.20;;;;;;;20.00;41.66;102197.41;5112197;28;20044;-44
2023/04/19 00:26:46;;;;;;;0.20;0.20;;;;;;;20.00;41.90;102195.47;5112895;28;20044;-43
2023/04/19 00:29:12;;;;;;;0.20;0.20;;;;;;;19.99;41.89;102193.81;5112182;28;20051;-43
2023/04/19 00:31:38;;;;;;;0.20;0.20;;;;;;;20.00;41.75;102194.66;5111848;27;20053;-44
2023/04/19 00:34:05;;;;;;;0.20;0.20;;;;;;;20.00;41.92;102202.94;5112492;28;20423;-43
2023/04/19 00:36:30;;;;;;;0.22;0.22;;;;;;;20.00;41.75;102201.00;5112362;28;20083;-43
2023/04/19 00:38:56;;;;;;;0.20;0.20;;;;;;;19.98;41.84;102203.19;5112319;28;20150;-42
2023/04/19 00:41:22;;;;;;;0.20;0.20;;;;;;;19.99;41.91;102193.81;5111874;28;20039;-42
2023/04/19 00:43:47;;;;;;;0.20;0.20;;;;;;;19.99;41.99;102187.41;5112124;28;20444;-44
2023/04/19 00:46:14;;;;;;;0.30;0.30;;;;;;;19.99;41.94;102195.72;5112618;28;20303;-44
2023/04/19 00:48:40;;;;;;;0.20;0.20;;;;;;;20.00;41.60;102197.41;5112835;28;20127;-42
2023/04/19 00:51:05;;;;;;;0.20;0.20;;;;;;;19.99;41.75;102192.94;5112226;27;20134;-43
2023/04/19 00:53:31;;;;;;;0.20;0.20;;;;;;;19.98;41.68;102192.13;5111958;28;20400;-43
2023/04/19 00:55:59;;;;;;;0.20;0.20;;;;;;;19.99;41.64;102193.81;5112584;28;20051;-43
2023/04/19 00:58:27;;;;;;;0.20;0.20;;;;;;;19.99;41.61;102191.06;5094451;28;20491;-43
2023/04/19 01:00:52;;;;;;;0.20;0.20;;;;;;;19.99;41.95;102184.66;5094320;28;20092;-42
2023/04/19 01:03:19;;;;;;;0.20;0.20;;;;;;;19.98;41.79;102188.53;5112746;27;20256;-42
2023/04/19 01:05:45;;;;;;;0.20;0.20;;;;;;;19.98;41.70;102185.75;5114926;28;20051;-42
2023/04/19 01:08:10;;;;;;;0.20;0.20;;;;;;;19.98;42.01;102194.06;5115956;28;20043;-43
2023/04/19 01:10:36;;;;;;;0.20;0.20;;;;;;;19.98;42.02;102185.75;5116103;28;20419;-42
2023/04/19 01:13:02;;;;;;;0.30;0.30;;;;;;;19.98;41.58;102183.00;5115189;28;20047;-44
2023/04/19 01:15:28;;;;;;;0.30;0.30;;;;;;;19.97;41.92;102184.94;5115971;28;20049;-43
2023/04/19 01:17:55;;;;;;;0.20;0.20;;;;;;;19.98;41.84;102174.69;5115216;28;20086;-44
2023/04/19 01:20:20;;;;;;;0.20;0.20;;;;;;;19.97;41.93;102181.31;5115924;28;20047;-43
2023/04/19 01:22:46;;;;;;;0.30;0.30;;;;;;;19.97;41.97;102179.41;5115370;28;20519;-43
2023/04/19 01:25:12;;;;;;;0.20;0.20;;;;;;;19.97;41.97;102170.25;5115760;28;20047;-43
2023/04/19 01:27:37;;;;;;;0.20;0.20;;;;;;;19.98;41.87;102170.00;5115745;28;20055;-42
2023/04/19 01:30:04;;;;;;;0.20;0.20;;;;;;;19.97;41.69;102175.78;5115065;28;20931;-43
2023/04/19 01:32:29;;;;;;;0.20;0.20;;;;;;;19.97;41.88;102175.78;5114783;27;20112;-45
2023/04/19 01:34:55;;;;;;;0.20;0.20;;;;;;;19.97;41.93;102170.25;5114757;28;20074;-42
2023/04/19 01:37:21;;;;;;;0.20;0.20;;;;;;;19.97;41.99;102164.72;5097035;28;20429;-42
2023/04/19 01:39:46;;;;;;;0.20;0.20;;;;;;;19.97;41.89;102171.09;5115225;28;20043;-43
2023/04/19 01:42:12;;;;;;;0.25;0.25;;;;;;;19.97;41.63;102167.50;5114103;28;20053;-43
2023/04/19 01:44:38;;;;;;;0.20;0.20;;;;;;;19.97;41.91;102167.50;5114317;28;20491;-42
2023/04/19 01:47:04;;;;;;;0.22;0.22;;;;;;;19.97;41.68;102168.34;5115259;28;20062;-43
2023/04/19 01:49:30;;;;;;;0.20;0.20;;;;;;;19.96;41.83;102157.53;5101711;27;20043;-43
2023/04/19 01:51:55;;;;;;;0.20;0.20;;;;;;;19.97;41.75;102161.97;5135467;27;20043;-43
2023/04/19 01:54:21;;;;;;;0.22;0.22;;;;;;;19.97;42.00;102159.22;5119972;27;20450;-42
2023/04/19 01:56:47;;;;;;;0.20;0.20;;;;;;;19.96;42.05;102160.31;5114454;28;20059;-43
2023/04/19 01:59:12;;;;;;;0.20;0.20;;;;;;;19.97;41.95;102161.97;5095921;28;20047;-42
2023/04/19 02:01:38;;;;;;;0.20;0.20;;;;;;;19.97;41.71;102161.97;5114615;28;20207;-42
2023/04/19 02:04:04;;;;;;;0.30;0.30;;;;;;;19.97;41.96;102161.97;5113734;28;20059;-43
2023/04/19 02:06:30;;;;;;;0.20;0.20;;;;;;;19.95;41.88;102156.72;5112974;28;20062;-43
2023/04/19 02:08:56;;;;;;;0.20;0.20;;;;;;;19.96;42.01;102149.25;5114391;28;20043;-43
2023/04/19 02:11:22;;;;;;;0.20;0.20;;;;;;;19.96;42.04;102160.31;5114311;28;20096;-42
2023/04/19 02:13:47;;;;;;;0.20;0.20;;;;;;;19.96;42.03;102150.06;5113341;27;20458;-43
2023/04/19 02:16:13;;;;;;;0.20;0.20;;;;;;;19.96;41.88;102154.78;5113845;28;20047;-42
2023/04/19 02:18:39;;;;;;;0.20;0.20;;;;;;;19.95;41.82;102145.66;5095529;28;20462;-42
2023/04/19 02:21:06;;;;;;;0.20;0.20;;;;;;;19.95;41.75;102151.19;5096039;28;20043;-43
2023/04/19 02:23:32;;;;;;;0.20;0.20;;;;;;;19.96;41.90;102149.25;5114395;28;20202;-42
2023/04/19 02:25:58;;;;;;;0.20;0.20;;;;;;;19.95;41.80;102142.88;5095690;28;20275;-44
2023/04/19 02:28:23;;;;;;;0.20;0.20;;;;;;;19.96;41.83;102152.84;5114714;28;20505;-45
2023/04/19 02:30:49;;;;;;;0.20;0.20;;;;;;;19.96;41.81;102154.78;5113393;28;20051;-43
2023/04/19 02:33:15;;;;;;;0.20;0.20;;;;;;;19.95;41.85;102145.66;5114036;27;20567;-44
2023/04/19 02:35:41;;;;;;;0.20;0.20;;;;;;;19.95;42.03;102151.19;5114420;28;20095;-45
2023/04/19 02:38:06;;;;;;;0.20;0.20;;;;;;;19.95;41.88;102151.19;5113751;28;20043;-42
2023/04/19 02:40:32;;;;;;;0.20;0.20;;;;;;;19.95;41.96;102151.19;5095632;28;20073;-43
2023/04/19 02:42:58;;;;;;;0.20;0.20;;;;;;;19.94;42.04;102157.78;5112946;28;20129;-43
2023/04/19 02:45:24;;;;;;;0.20;0.20;;;;;;;19.95;41.87;102153.13;5095298;28;20095;-43
2023/04/19 02:47:49;;;;;;;0.20;0.20;;;;;;;19.95;41.99;102153.94;5096203;28;20404;-43
2023/04/19 02:50:16;;;;;;;0.20;0.20;;;;;;;19.94;41.61;102149.47;5094095;28;20052;-44
2023/04/19 02:52:41;;;;;;;0.20;0.20;;;;;;;19.95;41.80;102156.72;5074750;28;20043;-43
2023/04/19 02:55:07;;;;;;;0.20;0.20;;;;;;;19.94;41.99;102152.25;5113272;28;20458;-42
2023/04/19 02:57:33;;;;;;;0.30;0.30;;;;;;;19.95;41.71;102153.94;5095233;28;20428;-43
2023/04/19 02:59:59;;;;;;;0.20;0.20;;;;;;;19.95;41.75;102158.63;5095836;28;20534;-42
2023/04/19 03:02:24;;;;;;;0.20;0.20;;;;;;;19.94;41.75;102157.78;5113711;28;20043;-44
2023/04/19 03:04:51;;;;;;;0.20;0.20;;;;;;;19.94;41.81;102148.66;5112422;28;20431;-43
2023/04/19 03:07:17;;;;;;;0.20;0.20;;;;;;;19.94;41.81;102151.41;5113461;28;20239;-43
2023/04/19 03:09:43;;;;;;;0.20;0.20;;;;;;;19.95;42.06;102155.88;5114164;28;20427;-42
2023/04/19 03:12:09;;;;;;;0.20;0.20;;;;;;;19.93;41.79;102144.22;5094622;28;20418;-43
2023/04/19 03:14:35;;;;;;;0.20;0.20;;;;;;;19.94;41.91;102149.47;5112661;28;20075;-42
2023/04/19 03:17:00;;;;;;;0.20;0.20;;;;;;;19.94;42.31;102152.25;5112888;28;20077;-43
2023/04/19 03:19:26;;;;;;;0.20;0.20;;;;;;;19.94;42.03;102140.34;5113544;28;20051;-42
2023/04/19 03:21:52;;;;;;;0.20;0.20;;;;;;;19.94;42.08;102148.66;5113503;28;20047;-44
2023/04/19 03:24:18;;;;;;;0.20;0.20;;;;;;;19.94;41.83;102145.88;5113219;28;20063;-42
2023/04/19 03:26:44;;;;;;;0.20;0.20;;;;;;;19.94;41.94;102140.34;5094621;28;20544;-43
2023/04/19 03:29:09;;;;;;;0.20;0.20;;;;;;;19.94;41.95;102145.88;5112947;28;20046;-44
2023/04/19 03:31:35;;;;;;;0.20;0.20;;;;;;;19.92;41.98;102135.09;5113361;27;20043;-43
2023/04/19 03:34:01;;;;;;;0.20;0.20;;;;;;;19.93;41.78;102141.47;5113297;28;20139;-47
2023/04/19 03:36:27;;;;;;;0.20;0.20;;;;;;;19.93;41.94;102138.69;5112701;28;20055;-43
2023/04/19 03:38:53;;;;;;;0.28;0.28;;;;;;;19.93;42.12;102135.94;5113010;28;20047;-43
2023/04/19 03:41:20;;;;;;;0.20;0.20;;;;;;;19.92;41.87;102137.84;5112832;28;20039;-44
2023/04/19 03:43:45;;;;;;;0.20;0.20;;;;;;;19.93;42.05;102134.00;5111757;28;20051;-43
2023/04/19 03:46:11;;;;;;;0.20;0.20;;;;;;;19.93;41.94;102138.69;5112670;27;20402;-45
2023/04/19 03:48:37;;;;;;;0.20;0.20;;;;;;;19.92;41.82;102137.03;5112474;27;20158;-44
2023/04/19 03:51:02;;;;;;;0.30;0.30;;;;;;;19.92;42.31;102129.56;5113296;28;20065;-42
2023/04/19 03:53:28;;;;;;;0.22;0.22;;;;;;;19.93;42.08;102134.00;5112499;28;20055;-43
2023/04/19 03:55:54;;;;;;;0.20;0.20;;;;;;;19.92;42.13;102132.34;5112207;28;20249;-42
2023/04/19 03:58:19;;;;;;;0.30;0.30;;;;;;;19.92;41.98;102132.34;5113126;28;20047;-42
2023/04/19 04:00:45;;;;;;;0.20;0.20;;;;;;;19.92;41.92;102137.03;5112789;28;20058;-44
2023/04/19 04:03:10;;;;;;;0.30;0.30;;;;;;;19.92;42.14;102137.84;5113180;28;20406;-43
2023/04/19 04:05:36;;;;;;;0.20;0.20;;;;;;;19.92;42.14;102129.56;5112076;28;20305;-43
2023/04/19 04:08:02;;;;;;;0.20;0.20;;;;;;;19.93;42.15;102133.16;5112779;28;20053;-43
2023/04/19 04:10:28;;;;;;;0.20;0.20;;;;;;;19.91;41.80;102127.91;5113196;28;20058;-44
2023/04/19 04:12:54;;;;;;;0.22;0.22;;;;;;;19.91;41.84;102124.31;5112718;28;20114;-43
2023/04/19 04:15:19;;;;;;;0.20;0.20;;;;;;;19.91;41.78;102125.13;5112318;28;20069;-43
2023/04/19 04:17:45;;;;;;;0.22;0.22;;;;;;;19.92;42.24;102123.19;5111825;28;20419;-44
2023/04/19 04:20:12;;;;;;;0.20;0.20;;;;;;;19.92;41.97;102123.19;5113088;28;20058;-43
2023/04/19 04:22:41;;;;;;;0.20;0.20;;;;;;;19.92;42.11;102115.75;5094217;28;20549;-44
2023/04/19 04:25:08;;;;;;;0.20;0.20;;;;;;;19.92;42.00;102114.91;5077574;28;20047;-43
2023/04/19 04:27:33;;;;;;;0.30;0.30;;;;;;;19.91;42.08;102116.84;5094407;28;20085;-43
2023/04/19 04:30:00;;;;;;;0.20;0.20;;;;;;;19.93;42.17;102130.41;5112353;28;20054;-42
2023/04/19 04:32:26;;;;;;;0.20;0.20;;;;;;;19.92;41.97;102128.72;5112457;27;20051;-44
2023/04/19 04:34:51;;;;;;;0.20;0.20;;;;;;;19.92;41.96;102123.19;5112531;28;20255;-46
2023/04/19 04:37:17;;;;;;;0.28;0.28;;;;;;;19.91;41.80;102121.53;5112886;27;20090;-44
2023/04/19 04:39:43;;;;;;;0.20;0.20;;;;;;;19.92;41.88;102124.03;5115816;28;20067;-43
2023/04/19 04:42:09;;;;;;;0.22;0.22;;;;;;;19.92;41.92;102123.19;5113375;27;20043;-42
2023/04/19 04:44:35;;;;;;;0.20;0.20;;;;;;;19.91;42.21;102121.53;5119141;27;20427;-43
2023/04/19 04:47:00;;;;;;;0.20;0.20;;;;;;;19.91;42.13;102114.06;5113298;27;20368;-44
2023/04/19 04:49:26;;;;;;;0.20;0.20;;;;;;;19.91;42.21;102116.84;5115908;27;20061;-47
2023/04/19 04:51:52;;;;;;;0.20;0.20;;;;;;;19.91;42.12;102116.00;5116301;27;20432;-44
2023/04/19 04:54:17;;;;;;;0.20;0.20;;;;;;;19.91;41.96;102119.59;5119247;27;20058;-44
2023/04/19 04:56:43;;;;;;;0.20;0.20;;;;;;;19.91;41.99;102119.59;5113594;27;20101;-46
2023/04/19 04:59:09;;;;;;;0.20;0.20;;;;;;;19.91;41.97;102122.38;5123864;27;20046;-43
2023/04/19 05:01:34;;;;;;;0.20;0.20;;;;;;;19.90;41.89;102123.44;5123551;27;20077;-44
2023/04/19 05:04:00;;;;;;;0.20;0.20;;;;;;;19.90;42.05;102120.69;5116013;27;20520;-43
2023/04/19 05:06:26;;;;;;;0.20;0.20;;;;;;;19.91;41.95;102116.00;5114980;28;20055;-45
2023/04/19 05:08:52;;;;;;;0.20;0.20;;;;;;;19.91;42.10;102119.59;5115618;27;20043;-47
2023/04/19 05:11:17;;;;;;;0.20;0.20;;;;;;;19.91;41.93;102122.38;5116208;27;20077;-43
2023/04/19 05:13:43;;;;;;;0.20;0.20;;;;;;;19.90;42.10;102112.38;5114781;27;20035;-44
2023/04/19 05:16:09;;;;;;;0.20;0.20;;;;;;;19.90;41.96;102120.69;5115193;27;20049;-43
2023/04/19 05:18:34;;;;;;;0.20;0.20;;;;;;;19.91;42.13;102122.38;5118618;27;20081;-43
2023/04/19 05:21:00;;;;;;;0.20;0.20;;;;;;;19.90;42.01;102117.06;5113580;28;20886;-46
2023/04/19 05:23:26;;;;;;;0.30;0.30;;;;;;;19.90;42.23;102122.59;5114916;28;20209;-43
2023/04/19 05:25:51;;;;;;;0.20;0.20;;;;;;;19.92;42.03;102120.44;5118043;27;20064;-45
2023/04/19 05:28:17;;;;;;;0.20;0.20;;;;;;;19.91;41.88;102121.53;5129322;27;20098;-44
2023/04/19 05:30:43;;;;;;;0.20;0.20;;;;;;;19.91;42.00;102116.00;5135639;27;20454;-43
2023/04/19 05:33:08;;;;;;;0.20;0.20;;;;;;;19.91;42.05;102125.13;5100056;27;20134;-44
2023/04/19 05:35:34;;;;;;;0.20;0.20;;;;;;;19.90;42.27;102126.19;5113123;27;20076;-43
2023/04/19 05:38:00;;;;;;;0.30;0.30;;;;;;;19.90;42.01;102123.44;5110661;27;20043;-45
2023/04/19 05:40:27;;;;;;;0.20;0.20;;;;;;;19.91;42.07;102124.31;5121242;27;20073;-43
2023/04/19 05:42:52;;;;;;;0.20;0.20;;;;;;;19.90;41.91;102123.44;5112109;27;20103;-46
2023/04/19 05:45:18;;;;;;;0.20;0.20;;;;;;;19.90;42.15;102126.19;5115240;27;20043;-46
2023/04/19 05:47:44;;;;;;;0.20;0.20;;;;;;;19.92;41.92;102120.44;5113468;28;20043;-43
2023/04/19 05:50:10;;;;;;;0.20;0.20;;;;;;;19.92;42.20;102125.97;5092211;28;20539;-43
2023/04/19 05:52:35;;;;;;;0.20;0.20;;;;;;;19.91;41.99;102132.59;5106570;28;20066;-46
2023/04/19 05:55:01;;;;;;;0.20;0.20;;;;;;;19.92;41.91;102128.72;5107458;27;20096;-44
2023/04/19 05:57:27;;;;;;;0.20;0.20;;;;;;;19.92;41.82;102125.97;5104027;27;20050;-43
2023/04/19 05:59:52;;;;;;;0.30;0.30;;;;;;;19.92;41.99;102125.97;5102090;27;20043;-44
2023/04/19 06:02:18;;;;;;;0.20;0.20;;;;;;;19.92;41.82;102118.50;5100727;27;20043;-42
2023/04/19 06:04:44;;;;;;;0.20;0.20;;;;;;;19.94;41.63;102132.06;5102175;27;20047;-44
2023/04/19 06:07:10;;;;;;;0.20;0.20;;;;;;;19.91;42.06;102127.91;5093363;27;20631;-47
2023/04/19 06:09:56;;;;;;;0.20;0.20;;;;;;;19.91;42.06;102125.13;5083054;27;20054;-46
2023/04/19 06:12:22;;;;;;;0.20;0.20;;;;;;;19.90;41.79;102128.97;5109715;27;20043;-45
2023/04/19 06:14:47;;;;;;;0.20;0.20;;;;;;;19.91;41.88;102130.66;5086106;28;20047;-47
2023/04/19 06:17:15;;;;;;;0.20;0.20;;;;;;;19.91;41.97;102129.84;5107520;27;20519;-44
2023/04/19 06:19:41;;;;;;;0.20;0.20;;;;;;;19.91;41.88;102127.06;5102008;27;20046;-45
2023/04/19 06:22:07;;;;;;;0.20;0.20;;;;;;;19.89;42.01;102132.00;5097302;27;20077;-45
2023/04/19 06:24:33;;;;;;;0.20;0.20;;;;;;;19.88;41.82;102124.81;5102031;27;20039;-44
2023/04/19 06:27:01;;;;;;;0.30;0.30;;;;;;;19.91;41.53;102130.66;5103148;27;20422;-45
2023/04/19 06:29:26;;;;;;;0.20;0.20;;;;;;;19.90;41.80;102122.59;5103582;27;20491;-47
2023/04/19 06:31:52;;;;;;;0.20;0.20;;;;;;;19.90;41.69;102125.38;5109115;27;20066;-48
2023/04/19 06:34:18;;;;;;;0.20;0.20;;;;;;;19.88;42.04;102122.03;5099328;27;20059;-45
2023/04/19 06:36:44;;;;;;;0.20;0.20;;;;;;;19.88;42.26;102124.81;5103214;27;20051;-46
2023/04/19 06:39:10;;;;;;;0.28;0.28;;;;;;;19.89;42.07;102120.94;5103160;27;20050;-46
2023/04/19 06:41:35;;;;;;;0.20;0.20;;;;;;;19.80;37.60;102118.63;5103056;27;20538;-42
2023/04/19 06:44:01;;;;;;;0.20;0.20;;;;;;;19.86;39.38;102118.69;5096887;27;20047;-45
2023/04/19 06:46:27;;;;;;;0.20;0.20;;;;;;;19.88;40.92;102117.34;5093780;27;20089;-45
2023/04/19 06:48:53;;;;;;;0.20;0.20;;;;;;;19.88;41.21;102124.81;5092851;27;20151;-46
2023/04/19 06:51:19;;;;;;;0.20;0.20;;;;;;;19.88;41.08;102122.88;5097754;27;20047;-46
2023/04/19 06:53:45;;;;;;;0.20;0.20;;;;;;;19.90;40.93;102119.84;5091122;27;20193;-48
2023/04/19 06:56:12;;;;;;;0.20;0.20;;;;;;;19.91;41.20;102125.13;5093585;27;20168;-47
2023/04/19 06:58:37;;;;;;;0.20;0.20;;;;;;;19.92;41.24;102117.66;5086796;27;20471;-45
2023/04/19 07:01:03;;;;;;;0.10;0.10;;;;;;;19.98;40.25;102117.47;5086457;27;20116;-44
2023/04/19 07:03:29;;;;;;;0.20;0.20;;;;;;;19.96;40.69;102124.38;5067618;28;20050;-45
2023/04/19 07:05:55;;;;;;;0.20;0.20;;;;;;;19.96;40.94;102127.97;5089034;28;20035;-45
2023/04/19 07:08:22;;;;;;;0.20;0.20;;;;;;;19.95;41.23;102133.75;5076383;27;20178;-44
2023/04/19 07:10:48;;;;;;;0.20;0.20;;;;;;;19.94;41.48;102124.59;5059363;27;20938;-45
2023/04/19 07:13:13;;;;;;;0.20;0.20;;;;;;;19.97;40.91;102124.09;5093756;27;20042;-46
2023/04/19 07:15:39;;;;;;;0.20;0.20;;;;;;;19.95;41.52;102122.69;5090383;27;20403;-44
2023/04/19 07:18:05;;;;;;;0.20;0.20;;;;;;;19.97;40.92;102129.63;5090925;27;20048;-46
2023/04/19 07:20:31;;;;;;;0.20;0.20;;;;;;;19.99;41.45;102123.81;5088833;27;20043;-44
2023/04/19 07:22:58;;;;;;;0.20;0.20;;;;;;;19.97;41.75;102117.72;5091411;27;20515;-45
2023/04/19 07:25:24;;;;;;;0.20;0.20;;;;;;;19.95;41.38;102115.25;5056023;27;20128;-45
2023/04/19 07:27:51;;;;;;;0.30;0.30;;;;;;;19.96;41.66;102114.13;5074131;27;20473;-44
2023/04/19 07:30:17;;;;;;;0.20;0.20;;;;;;;19.98;41.38;102119.41;5079979;27;20062;-45
2023/04/19 07:32:43;;;;;;;0.20;0.20;;;;;;;19.98;41.62;102119.41;5093135;27;20087;-45
2023/04/19 07:35:09;;;;;;;0.20;0.20;;;;;;;19.98;41.41;102114.69;5092628;27;20044;-45
2023/04/19 07:37:34;;;;;;;0.20;0.20;;;;;;;19.97;41.66;102126.03;5096146;27;20481;-44
2023/04/19 07:40:00;;;;;;;0.20;0.20;;;;;;;19.96;41.58;102113.31;5075849;27;20140;-45
2023/04/19 07:42:28;;;;;;;0.20;0.20;;;;;;;19.96;41.54;102114.13;5089039;27;20047;-48
2023/04/19 07:44:54;;;;;;;0.30;0.30;;;;;;;19.98;40.36;102122.16;5070213;27;20070;-45
2023/04/19 07:47:19;;;;;;;0.20;0.20;;;;;;;19.97;41.76;102109.44;5093724;27;20047;-47
2023/04/19 07:49:45;;;;;;;0.20;0.20;;;;;;;19.98;40.16;102120.22;5091535;27;20031;-44
2023/04/19 07:52:11;;;;;;;0.20;0.20;;;;;;;19.98;38.97;102117.47;5094474;27;20051;-45
2023/04/19 07:54:38;;;;;;;0.20;0.20;;;;;;;19.98;39.17;102111.94;5092721;27;20328;-46
2023/04/19 07:57:04;;;;;;;0.20;0.20;;;;;;;19.97;41.27;102109.44;5095481;27;20039;-47
2023/04/19 07:59:32;;;;;;;0.20;0.20;;;;;;;19.96;38.97;102108.59;5084641;27;20540;-44
2023/04/19 08:01:58;;;;;;;0.10;0.10;;;;;;;20.00;38.07;102118.06;5092536;27;20039;-45
2023/04/19 08:04:24;;;;;;;0.20;0.20;;;;;;;20.01;38.47;102113.34;5087954;27;20308;-45
2023/04/19 08:06:51;;;;;;;0.20;0.20;;;;;;;20.01;39.25;102111.44;5100237;27;20047;-46
2023/04/19 08:09:17;;;;;;;0.20;0.20;;;;;;;19.99;38.10;102107.22;5087137;27;20530;-46
2023/04/19 08:11:43;;;;;;;0.20;0.20;;;;;;;19.98;37.83;102111.09;5071003;27;20398;-44
2023/04/19 08:14:09;;;;;;;0.25;0.25;;;;;;;19.92;36.61;102104.69;5095030;27;20059;-45
2023/04/19 08:16:54;;;;;;;0.20;0.20;;;;;;;19.96;37.16;102105.00;5080259;27;20047;-44
2023/04/19 08:19:23;;;;;;;0.20;0.20;;;;;;;19.99;38.04;102110.00;5092706;27;20043;-45
2023/04/19 08:21:49;;;;;;;0.20;0.20;;;;;;;20.00;37.94;102112.53;5090784;27;20045;-46
2023/04/19 08:24:14;;;;;;;0.20;0.20;;;;;;;20.02;38.63;102117.78;5096912;27;20146;-47
2023/04/19 08:26:41;;;;;;;0.20;0.20;;;;;;;20.01;38.16;102122.50;5100296;27;20501;-44
2023/04/19 08:29:07;;;;;;;0.20;0.20;;;;;;;20.01;38.06;102114.19;5101168;27;20047;-48
2023/04/19 08:31:32;;;;;;;0.20;0.20;;;;;;;20.03;38.61;102117.56;5070793;27;20606;-45
2023/04/19 08:33:59;;;;;;;0.20;0.20;;;;;;;20.03;38.81;102114.78;5072193;27;20471;-51
2023/04/19 08:36:26;;;;;;;0.20;0.20;;;;;;;20.04;38.30;102108.16;5085405;27;20043;-49
2023/04/19 08:39:04;;;;;;;0.20;0.20;;;;;;;20.05;39.09;102106.22;5072417;27;20066;-46
2023/04/19 08:41:37;;;;;;;0.20;0.20;;;;;;;20.04;39.12;102112.84;5077152;27;20071;-45
2023/04/19 08:44:05;;;;;;;0.20;0.20;;;;;;;20.04;39.04;102118.38;5082947;27;20116;-44
2023/04/19 08:46:31;;;;;;;0.20;0.20;;;;;;;20.03;40.38;102112.03;5103048;27;21574;-46
2023/04/19 08:48:58;;;;;;;0.20;0.20;;;;;;;20.04;39.35;102113.69;5110821;27;20047;-45
2023/04/19 08:51:25;;;;;;;0.20;0.20;;;;;;;20.05;39.37;102109.00;5085584;27;20358;-46
2023/04/19 08:53:51;;;;;;;0.20;0.20;;;;;;;20.04;38.88;102105.38;5101960;27;20043;-45
2023/04/19 08:56:17;;;;;;;0.20;0.20;;;;;;;20.05;38.26;102111.75;5104727;27;20512;-45
2023/04/19 08:59:00;;;;;;;0.20;0.20;;;;;;;20.04;38.23;102097.09;5099788;27;20039;-45
2023/04/19 09:01:43;;;;;;;0.20;0.20;;;;;;;20.05;38.71;102107.06;5099412;27;20130;-45
2023/04/19 09:04:10;;;;;;;0.20;0.20;;;;;;;20.05;40.36;102103.47;5102625;27;20464;-46
2023/04/19 09:06:55;;;;;;;0.20;0.20;;;;;;;19.88;35.51;102097.16;5089895;27;20051;-45
2023/04/19 09:09:24;;;;;;;0.20;0.20;;;;;;;20.01;35.82;102102.31;5108077;27;20112;-45
2023/04/19 09:11:52;;;;;;;0.20;0.20;;;;;;;20.04;36.36;102097.09;5086550;28;20043;-45
2023/04/19 09:14:19;;;;;;;0.20;0.20;;;;;;;20.04;37.92;102091.56;5105065;28;20146;-45
2023/04/19 09:16:45;;;;;;;0.20;0.20;;;;;;;20.05;36.61;102093.22;5094740;27;20608;-46
2023/04/19 09:19:11;;;;;;;0.20;0.20;;;;;;;20.05;37.27;102093.22;5104621;27;20532;-44
2023/04/19 09:21:50;;;;;;;;;;;;;;;20.06;36.07;102091.28;5089821;28;20050;-47
2023/04/19 09:24:16;;;;;;;0.20;0.20;;;;;;;20.06;37.01;102094.06;5093901;27;19927;-44
2023/04/19 09:26:52;;;;;;;0.20;0.20;;;;;;;20.06;37.12;102096.81;5088329;28;20108;-47
2023/04/19 09:29:18;;;;;;;0.20;0.20;;;;;;;20.07;37.72;102089.34;5084622;27;20500;-45
2023/04/19 09:31:56;;;;;;;0.20;0.20;;;;;;;20.08;37.75;102091.88;5107765;27;20063;-44
2023/04/19 09:34:23;;;;;;;0.20;0.20;;;;;;;20.08;37.34;102085.50;5083828;27;20095;-45
2023/04/19 09:36:48;;;;;;;0.20;0.20;;;;;;;20.11;38.13;102085.81;5091589;27;20035;-45
2023/04/19 09:39:37;;;;;;;0.20;0.20;;;;;;;20.12;37.74;102083.88;5074683;27;20343;-45
2023/04/19 09:42:03;;;;;;;0.20;0.20;;;;;;;20.10;37.15;102078.63;5092760;27;20043;-45
2023/04/19 09:44:29;;;;;;;0.20;0.20;;;;;;;20.09;36.96;102073.38;5091263;27;20051;-45
2023/04/19 09:46:58;;;;;;;0.20;0.20;;;;;;;20.09;37.13;102076.13;5089670;27;20052;-44
2023/04/19 09:49:24;;;;;;;0.28;0.28;;;;;;;20.08;35.88;102080.81;5099180;27;20452;-44
2023/04/19 09:52:12;;;;;;;0.20;0.20;;;;;;;20.04;35.36;102074.97;5076299;27;20121;-46
2023/04/19 09:54:38;;;;;;;0.20;0.20;;;;;;;20.07;36.29;102081.06;5100852;27;20349;-48
2023/04/19 09:57:04;;;;;;;0.20;0.20;;;;;;;20.09;37.07;102065.06;5106916;28;20835;-45
2023/04/19 09:59:30;;;;;;;0.20;0.20;;;;;;;20.03;35.25;102066.91;5096049;27;20050;-45
2023/04/19 10:01:58;;;;;;;0.20;0.20;;;;;;;20.05;35.85;102064.75;5099521;27;20043;-47
2023/04/19 10:04:24;;;;;;;;;;;;;;;20.07;36.15;102065.31;5090496;28;20550;-45
2023/04/19 10:07:09;;;;;;;0.20;0.20;;;;;;;20.08;37.42;102072.53;5091105;28;19919;-44
2023/04/19 10:09:56;;;;;;;0.20;0.20;;;;;;;20.07;37.43;102070.84;5094768;27;20464;-44
2023/04/19 10:12:38;;;;;;;0.20;0.20;;;;;;;20.07;36.32;102070.84;5098946;27;20039;-44
2023/04/19 10:15:24;;;;;;;0.20;0.20;;;;;;;20.11;37.51;102065.63;5082024;28;20046;-44
2023/04/19 10:17:50;;;;;;;0.20;0.20;;;;;;;20.10;37.09;102064.78;5100026;27;20167;-45
2023/04/19 10:20:22;;;;;;;0.30;0.30;;;;;;;20.08;39.71;102055.94;5106094;27;20040;-45
2023/04/19 10:22:48;;;;;;;0.20;0.20;;;;;;;20.09;36.64;102059.53;5107965;28;20039;-44
2023/04/19 10:25:15;;;;;;;0.20;0.20;;;;;;;20.11;36.88;102055.41;5106688;27;20388;-44
2023/04/19 10:27:45;;;;;;;0.20;0.20;;;;;;;20.08;36.69;102046.78;5102410;27;20111;-46
2023/04/19 10:30:19;;;;;;;0.20;0.20;;;;;;;20.09;36.28;102051.25;5086133;28;20051;-48
2023/04/19 10:32:51;;;;;;;0.20;0.20;;;;;;;20.08;36.13;102047.63;5085266;28;20122;-46
2023/04/19 10:35:28;;;;;;;0.20;0.20;;;;;;;20.08;36.47;102044.88;5079645;28;20051;-45
2023/04/19 10:38:11;;;;;;;0.20;0.20;;;;;;;20.08;36.26;102044.88;5101330;28;20047;-46
2023/04/19 10:40:59;;;;;;;0.20;0.20;;;;;;;20.08;36.08;102046.78;5074967;27;20051;-46
2023/04/19 10:43:27;;;;;;;0.20;0.20;;;;;;;20.08;35.48;102046.78;5059027;28;20430;-46
2023/04/19 10:45:53;;;;;;;0.17;0.17;;;;;;;20.05;35.07;102046.22;5066562;27;20091;-44
2023/04/19 10:48:34;;;;;;;0.20;0.20;;;;;;;20.09;35.09;102054.84;5065091;27;20107;-49
2023/04/19 10:51:02;;;;;;;0.20;0.20;;;;;;;20.08;36.26;102044.88;5099717;27;20514;-46
2023/04/19 10:53:45;;;;;;;0.20;0.20;;;;;;;20.09;35.65;102040.19;5082014;28;20051;-46
2023/04/19 10:56:11;;;;;;;0.20;0.20;;;;;;;20.05;35.28;102037.91;5096334;27;20301;-47
2023/04/19 11:04:12;;;;;;;0.30;0.30;;;;;;;19.90;30.73;102032.19;5146656;27;20403;-45
2023/04/19 11:07:00;;;;;;;0.10;0.10;;;;;;;19.98;31.10;102040.03;5127551;27;20202;-48
2023/04/19 11:09:29;;;;;;;0.10;0.10;;;;;;;20.00;31.17;102034.28;5134090;27;20896;-46
2023/04/19 11:12:00;;;;;;;0.20;0.20;;;;;;;20.01;31.48;102024.88;5114353;27;20122;-46
2023/04/19 11:14:26;;;;;;;0.10;0.10;;;;;;;20.03;32.97;102042.03;5136068;27;20092;-45
2023/04/19 11:16:51;;;;;;;0.10;0.10;;;;;;;20.03;35.72;102025.44;5132567;27;20055;-47
2023/04/19 11:19:18;;;;;;;0.20;0.20;;;;;;;20.06;33.66;102027.69;5130969;27;20050;-46
2023/04/19 11:21:45;;;;;;;0.20;0.20;;;;;;;20.04;33.55;102030.72;5138169;27;20053;-47
2023/04/19 11:24:11;;;;;;;0.20;0.20;;;;;;;20.04;34.41;102025.19;5112872;27;20289;-44
2023/04/19 11:26:37;;;;;;;0.20;0.20;;;;;;;20.06;33.70;102019.41;5113755;27;20707;-50
2023/04/19 11:29:05;;;;;;;0.20;0.20;;;;;;;20.07;33.45;102021.06;5113272;27;20108;-46
2023/04/19 11:31:32;;;;;;;0.20;0.20;;;;;;;20.05;33.19;102021.31;5102031;27;20464;-46